createdAt,value
2022-11-16T00:02:13.716Z,12.22
2022-11-16T00:04:42.596Z,12.21
2022-11-16T00:07:11.460Z,12.22
2022-11-16T00:09:39.382Z,12.23
2022-11-16T00:12:09.527Z,12.23
2022-11-16T00:14:38.276Z,12.25
2022-11-16T00:17:06.476Z,12.23
2022-11-16T00:19:35.691Z,12.20
2022-11-16T00:22:03.826Z,12.20
2022-11-16T00:24:31.761Z,12.15
2022-11-16T00:26:59.932Z,12.14
2022-11-16T00:29:28.049Z,12.09
2022-11-16T00:31:56.372Z,12.05
2022-11-16T00:34:24.871Z,12.06
2022-11-16T00:36:54.455Z,12.04
2022-11-16T00:39:22.493Z,12.03
2022-11-16T00:41:50.943Z,12.01
2022-11-16T00:44:18.986Z,12.04
2022-11-16T00:46:47.182Z,12.03
2022-11-16T00:49:15.270Z,12.03
2022-11-16T00:51:43.479Z,12.05
2022-11-16T00:54:13.486Z,12.04
2022-11-16T00:56:41.913Z,11.99
2022-11-16T00:59:09.803Z,11.97
2022-11-16T01:01:38.118Z,11.98
2022-11-16T01:04:07.463Z,11.98
2022-11-16T01:06:37.305Z,11.99
2022-11-16T01:09:05.249Z,11.97
2022-11-16T01:11:52.671Z,11.98
2022-11-16T01:14:20.601Z,11.99
2022-11-16T01:16:50.271Z,11.98
2022-11-16T01:19:18.241Z,11.99
2022-11-16T01:21:46.382Z,11.97
2022-11-16T01:24:14.274Z,11.99
2022-11-16T01:26:43.819Z,11.98
2022-11-16T01:29:11.726Z,11.98
2022-11-16T01:31:44.291Z,11.99
2022-11-16T01:34:12.228Z,12.00
2022-11-16T01:36:40.624Z,12.00
2022-11-16T01:39:08.627Z,11.99
2022-11-16T01:41:49.505Z,11.97
2022-11-16T01:44:56.588Z,11.97
2022-11-16T01:47:24.885Z,11.86
2022-11-16T01:49:57.740Z,11.82
2022-11-16T01:52:32.668Z,11.79
2022-11-16T01:55:01.476Z,11.76
2022-11-16T01:57:42.193Z,11.75
2022-11-16T02:00:12.564Z,11.71
2022-11-16T02:02:51.812Z,11.68
2022-11-16T02:05:46.866Z,11.63
2022-11-16T02:08:41.751Z,11.56
2022-11-16T02:11:27.650Z,11.60
2022-11-16T02:14:05.048Z,11.56
2022-11-16T02:16:38.798Z,11.56
2022-11-16T02:19:20.498Z,11.52
2022-11-16T02:21:53.087Z,11.50
2022-11-16T02:24:36.185Z,11.52
2022-11-16T02:27:32.603Z,11.52
2022-11-16T02:30:02.568Z,11.53
2022-11-16T02:32:33.120Z,11.56
2022-11-16T02:35:04.696Z,11.59
2022-11-16T02:37:35.497Z,11.57
2022-11-16T02:40:07.821Z,11.53
2022-11-16T02:42:39.086Z,11.56
2022-11-16T02:45:11.312Z,11.42
2022-11-16T02:47:42.704Z,11.36
2022-11-16T02:50:13.710Z,11.25
2022-11-16T02:52:41.688Z,11.26
2022-11-16T02:55:12.768Z,11.22
2022-11-16T02:57:49.953Z,11.19
2022-11-16T03:00:22.760Z,11.15
2022-11-16T03:03:00.037Z,11.17
2022-11-16T03:05:35.349Z,11.23
2022-11-16T03:08:13.478Z,11.17
2022-11-16T03:11:00.541Z,11.14
2022-11-16T03:13:31.480Z,11.17
2022-11-16T03:16:02.108Z,11.16
2022-11-16T03:18:30.290Z,11.22
2022-11-16T03:21:07.459Z,11.24
2022-11-16T03:23:35.519Z,11.23
2022-11-16T03:26:07.123Z,11.21
2022-11-16T03:28:38.103Z,11.22
2022-11-16T03:31:12.689Z,11.24
2022-11-16T03:33:44.549Z,11.25
2022-11-16T03:36:17.152Z,11.28
2022-11-16T03:38:46.616Z,11.27
2022-11-16T03:41:15.927Z,11.28
2022-11-16T03:43:45.006Z,11.26
2022-11-16T03:46:16.666Z,11.27
2022-11-16T03:48:46.381Z,11.26
2022-11-16T03:51:22.848Z,11.29
2022-11-16T03:53:50.784Z,11.29
2022-11-16T03:56:19.660Z,11.31
2022-11-16T03:58:48.200Z,11.23
2022-11-16T04:01:17.729Z,11.29
2022-11-16T04:03:47.155Z,11.29
2022-11-16T04:06:35.995Z,11.33
2022-11-16T04:09:21.561Z,11.35
2022-11-16T04:12:08.266Z,11.38
2022-11-16T04:14:55.299Z,11.39
2022-11-16T04:17:46.184Z,11.41
2022-11-16T04:20:33.580Z,11.38
2022-11-16T04:23:27.754Z,11.39
2022-11-16T04:25:56.627Z,11.42
2022-11-16T04:28:27.241Z,11.42
2022-11-16T04:31:17.517Z,11.40
2022-11-16T04:34:20.200Z,11.32
2022-11-16T04:37:09.857Z,11.31
2022-11-16T04:39:38.585Z,11.33
2022-11-16T04:42:15.341Z,11.31
2022-11-16T04:45:02.950Z,11.33
2022-11-16T04:47:37.600Z,11.37
2022-11-16T04:50:08.099Z,11.31
2022-11-16T04:52:36.186Z,11.33
2022-11-16T04:55:06.602Z,11.36
2022-11-16T04:57:34.594Z,11.36
2022-11-16T05:00:03.026Z,11.36
2022-11-16T05:02:31.520Z,11.36
2022-11-16T05:05:00.430Z,11.35
2022-11-16T05:07:31.748Z,11.34
2022-11-16T05:10:08.856Z,11.35
2022-11-16T05:12:37.116Z,11.32
2022-11-16T05:15:08.638Z,11.31
2022-11-16T05:17:36.766Z,11.27
2022-11-16T05:20:28.063Z,11.24
2022-11-16T05:23:02.350Z,11.22
2022-11-16T05:25:36.746Z,11.25
2022-11-16T05:28:08.132Z,11.23
2022-11-16T05:30:40.577Z,11.20
2022-11-16T05:33:08.789Z,11.22
2022-11-16T05:35:41.145Z,11.22
2022-11-16T05:38:10.825Z,11.20
2022-11-16T05:40:43.635Z,11.22
2022-11-16T05:43:11.960Z,11.24
2022-11-16T05:45:47.206Z,11.29
2022-11-16T05:48:16.838Z,11.33
2022-11-16T05:50:45.347Z,11.35
2022-11-16T05:53:21.923Z,11.36
2022-11-16T05:55:50.434Z,11.37
2022-11-16T05:58:19.703Z,11.36
2022-11-16T06:00:50.968Z,11.41
2022-11-16T06:03:20.511Z,11.40
2022-11-16T06:05:57.109Z,11.40
2022-11-16T06:08:28.528Z,11.35
2022-11-16T06:11:02.499Z,11.29
2022-11-16T06:13:30.856Z,11.34
2022-11-16T06:16:01.481Z,11.34
2022-11-16T06:18:31.853Z,11.38
2022-11-16T06:21:00.266Z,11.33
2022-11-16T06:23:29.524Z,11.35
2022-11-16T06:25:58.095Z,11.34
2022-11-16T06:28:28.663Z,11.37
2022-11-16T06:30:57.298Z,11.37
2022-11-16T06:33:30.895Z,11.39
2022-11-16T06:36:02.101Z,11.40
2022-11-16T06:38:31.642Z,11.40
2022-11-16T06:41:01.326Z,11.39
2022-11-16T06:43:30.678Z,11.37
2022-11-16T06:45:59.254Z,11.39
2022-11-16T06:48:27.163Z,11.39
2022-11-16T06:50:55.833Z,11.35
2022-11-16T06:53:28.942Z,11.34
2022-11-16T06:56:04.034Z,11.31
2022-11-16T06:58:34.504Z,11.29
2022-11-16T07:01:07.489Z,11.25
2022-11-16T07:03:36.296Z,11.22
2022-11-16T07:06:10.076Z,11.19
2022-11-16T07:08:39.293Z,11.12
2022-11-16T07:11:10.504Z,11.11
2022-11-16T07:13:39.653Z,11.07
2022-11-16T07:16:11.937Z,11.06
2022-11-16T07:18:45.621Z,11.06
2022-11-16T07:21:16.115Z,11.08
2022-11-16T07:23:45.773Z,11.08
2022-11-16T07:26:21.667Z,11.10
2022-11-16T07:28:55.294Z,11.12
2022-11-16T07:31:25.014Z,11.13
2022-11-16T07:34:12.888Z,11.14
2022-11-16T07:36:47.358Z,11.17
2022-11-16T07:39:15.379Z,11.15
2022-11-16T07:41:46.939Z,11.12
2022-11-16T07:44:25.256Z,11.10
2022-11-16T07:47:06.033Z,11.10
2022-11-16T07:49:35.940Z,11.09
2022-11-16T07:52:11.970Z,11.11
2022-11-16T07:54:59.589Z,11.10
2022-11-16T07:57:30.580Z,11.14
2022-11-16T08:00:02.232Z,11.21
2022-11-16T08:02:41.594Z,11.19
2022-11-16T08:05:15.705Z,11.18
2022-11-16T08:07:43.994Z,11.22
2022-11-16T08:10:12.038Z,11.22
2022-11-16T08:12:42.571Z,11.22
2022-11-16T08:15:14.014Z,11.26
2022-11-16T08:17:42.530Z,11.29
2022-11-16T08:20:13.218Z,11.28
2022-11-16T08:22:42.264Z,11.29
2022-11-16T08:25:10.857Z,11.35
2022-11-16T08:27:43.304Z,11.39
2022-11-16T08:30:12.958Z,11.42
2022-11-16T08:32:42.653Z,11.46
2022-11-16T08:35:12.025Z,11.49
2022-11-16T08:37:40.370Z,11.53
2022-11-16T08:40:12.615Z,11.59
2022-11-16T08:42:43.960Z,11.62
2022-11-16T08:45:13.136Z,11.65
2022-11-16T08:47:42.522Z,11.72
2022-11-16T08:50:10.922Z,11.71
2022-11-16T08:52:39.477Z,11.75
2022-11-16T08:55:08.168Z,11.79
2022-11-16T08:57:36.350Z,11.80
2022-11-16T09:00:12.171Z,11.84
2022-11-16T09:02:40.362Z,11.94
2022-11-16T09:05:11.806Z,12.00
2022-11-16T09:07:40.903Z,12.05
2022-11-16T09:10:09.992Z,12.14
2022-11-16T09:12:38.696Z,12.19
2022-11-16T09:15:07.888Z,12.30
2022-11-16T09:17:37.353Z,12.30
2022-11-16T09:20:06.307Z,12.36
2022-11-16T09:22:34.437Z,12.39
2022-11-16T09:25:02.336Z,12.43
2022-11-16T09:27:30.567Z,12.43
2022-11-16T09:29:58.494Z,12.33
2022-11-16T09:32:26.650Z,12.39
2022-11-16T09:34:55.970Z,12.41
2022-11-16T09:37:24.172Z,12.39
2022-11-16T09:39:52.196Z,12.42
2022-11-16T09:42:32.459Z,12.49
2022-11-16T09:45:04.469Z,12.60
2022-11-16T09:47:42.618Z,12.72
2022-11-16T09:50:20.450Z,12.76
2022-11-16T09:52:50.421Z,12.78
2022-11-16T09:55:24.646Z,12.76
2022-11-16T09:57:53.809Z,12.74
2022-11-16T10:00:23.609Z,12.76
2022-11-16T10:03:00.437Z,12.80
2022-11-16T10:05:33.847Z,12.74
2022-11-16T10:08:05.813Z,12.81
2022-11-16T10:10:37.789Z,12.85
2022-11-16T10:13:13.261Z,12.86
2022-11-16T10:15:50.862Z,12.89
2022-11-16T10:18:31.651Z,12.87
2022-11-16T10:21:12.895Z,12.96
2022-11-16T10:23:50.746Z,13.08
2022-11-16T10:26:28.198Z,13.15
2022-11-16T10:29:18.922Z,13.21
2022-11-16T10:31:58.128Z,13.21
2022-11-16T10:34:27.079Z,13.25
2022-11-16T10:36:59.647Z,13.31
2022-11-16T10:39:28.390Z,13.36
2022-11-16T10:41:57.422Z,13.40
2022-11-16T10:44:33.843Z,13.30
2022-11-16T10:47:04.606Z,13.31
2022-11-16T10:49:39.856Z,13.29
2022-11-16T10:52:09.461Z,13.35
2022-11-16T10:54:41.445Z,13.44
2022-11-16T10:57:27.629Z,13.69
2022-11-16T10:59:57.673Z,13.98
2022-11-16T11:02:32.175Z,14.28
2022-11-16T11:05:06.517Z,14.48
2022-11-16T11:07:39.662Z,14.54
2022-11-16T11:10:29.895Z,14.53
2022-11-16T11:13:07.572Z,14.47
2022-11-16T11:15:35.842Z,14.64
2022-11-16T11:18:18.959Z,15.09
2022-11-16T11:20:50.170Z,15.79
2022-11-16T11:23:21.181Z,15.95
2022-11-16T11:25:52.484Z,15.56
2022-11-16T11:28:23.972Z,15.30
2022-11-16T11:30:54.933Z,15.12
2022-11-16T11:33:23.789Z,14.80
2022-11-16T11:35:58.750Z,14.49
2022-11-16T11:38:28.046Z,14.31
2022-11-16T11:40:59.091Z,14.11
2022-11-16T11:43:27.914Z,14.04
2022-11-16T11:46:01.282Z,14.00
2022-11-16T11:48:35.550Z,13.98
2022-11-16T11:51:10.508Z,13.99
2022-11-16T11:53:45.610Z,13.92
2022-11-16T11:56:15.190Z,13.90
2022-11-16T11:58:43.478Z,13.90
2022-11-16T12:01:32.810Z,13.90
2022-11-16T12:04:26.791Z,13.96
2022-11-16T12:07:00.846Z,14.01
2022-11-16T12:09:36.154Z,13.96
2022-11-16T12:12:16.978Z,13.97
2022-11-16T12:15:01.306Z,13.96
2022-11-16T12:17:37.193Z,14.01
2022-11-16T12:20:17.828Z,14.06
2022-11-16T12:23:15.115Z,14.27
2022-11-16T12:25:48.513Z,15.33
2022-11-16T12:28:24.861Z,17.42
2022-11-16T12:31:03.102Z,18.58
2022-11-16T12:33:40.107Z,20.28
2022-11-16T12:36:15.887Z,20.45
2022-11-16T12:38:52.100Z,19.98
2022-11-16T12:41:42.517Z,19.49
2022-11-16T12:44:12.111Z,19.89
2022-11-16T12:46:48.843Z,19.36
2022-11-16T12:49:29.875Z,18.93
2022-11-16T12:52:07.811Z,18.48
2022-11-16T12:55:19.211Z,18.06
2022-11-16T12:57:44.895Z,18.54
2022-11-16T13:00:14.791Z,18.40
2022-11-16T13:02:56.404Z,18.12
2022-11-16T13:05:26.503Z,17.83
2022-11-16T13:07:57.676Z,17.75
2022-11-16T13:10:28.354Z,18.14
2022-11-16T13:13:22.279Z,19.23
2022-11-16T13:15:50.272Z,21.24
2022-11-16T13:18:20.673Z,22.54
2022-11-16T13:20:54.044Z,23.34
2022-11-16T13:23:26.726Z,22.34
2022-11-16T13:26:02.045Z,21.95
2022-11-16T13:28:36.513Z,21.26
2022-11-16T13:31:09.563Z,20.74
2022-11-16T13:33:49.327Z,20.17
2022-11-16T13:36:45.164Z,19.78
2022-11-16T13:39:21.487Z,21.42
2022-11-16T13:41:51.647Z,23.02
2022-11-16T13:44:31.098Z,24.35
2022-11-16T13:47:04.245Z,25.35
2022-11-16T13:49:35.140Z,25.76
2022-11-16T13:52:22.150Z,26.51
2022-11-16T13:54:53.488Z,26.68
2022-11-16T13:57:25.474Z,27.26
2022-11-16T14:00:08.905Z,27.55
2022-11-16T14:02:38.209Z,26.89
2022-11-16T14:05:15.329Z,26.11
2022-11-16T14:07:46.942Z,25.74
2022-11-16T14:11:01.473Z,23.96
2022-11-16T14:13:39.667Z,22.05
2022-11-16T14:16:55.820Z,20.40
2022-11-16T14:19:54.904Z,19.44
2022-11-16T14:22:39.645Z,18.61
2022-11-16T14:25:15.505Z,17.92
2022-11-16T14:27:48.910Z,17.44
2022-11-16T14:30:20.638Z,17.13
2022-11-16T14:32:50.404Z,16.93
2022-11-16T14:35:28.711Z,16.62
2022-11-16T14:37:58.561Z,16.30
2022-11-16T14:40:26.949Z,16.18
2022-11-16T14:45:48.136Z,15.75
2022-11-16T14:48:18.675Z,15.63
2022-11-16T14:51:01.502Z,15.58
2022-11-16T14:53:30.330Z,15.52
2022-11-16T14:56:07.443Z,15.88
2022-11-16T14:58:35.823Z,16.24
2022-11-16T15:01:06.001Z,16.48
2022-11-16T15:03:36.468Z,16.72
2022-11-16T15:06:07.789Z,16.77
2022-11-16T15:08:38.498Z,16.77
2022-11-16T15:11:08.858Z,16.57
2022-11-16T15:13:37.028Z,16.52
2022-11-16T15:16:09.810Z,16.25
2022-11-16T15:18:37.745Z,16.15
2022-11-16T15:21:07.381Z,15.81
2022-11-16T15:24:02.065Z,15.56
2022-11-16T15:26:35.611Z,15.33
2022-11-16T15:29:03.669Z,15.17
2022-11-16T15:31:31.956Z,14.92
2022-11-16T15:34:00.194Z,14.74
2022-11-16T15:36:33.939Z,14.69
2022-11-16T15:39:02.294Z,14.65
2022-11-16T15:41:30.595Z,14.64
2022-11-16T15:44:16.359Z,14.60
2022-11-16T15:46:46.904Z,14.56
2022-11-16T15:49:25.783Z,14.48
2022-11-16T15:51:55.447Z,14.45
2022-11-16T15:54:27.133Z,14.45
2022-11-16T15:56:57.102Z,14.44
2022-11-16T15:59:28.568Z,14.41
2022-11-16T16:01:57.232Z,14.37
2022-11-16T16:04:25.984Z,14.31
2022-11-16T16:06:56.796Z,14.26
2022-11-16T16:09:27.519Z,14.19
2022-11-16T16:11:57.123Z,14.13
2022-11-16T16:14:28.873Z,14.06
2022-11-16T16:16:59.120Z,14.01
2022-11-16T16:19:33.739Z,13.97
2022-11-16T16:22:04.012Z,13.92
2022-11-16T16:24:41.106Z,13.88
2022-11-16T16:27:14.818Z,13.87
2022-11-16T16:29:43.218Z,13.83
2022-11-16T16:32:19.757Z,13.83
2022-11-16T16:34:47.681Z,13.85
2022-11-16T16:37:17.524Z,13.84
2022-11-16T16:39:45.756Z,13.80
2022-11-16T16:42:15.485Z,13.77
2022-11-16T16:44:44.787Z,13.73
2022-11-16T16:47:13.386Z,13.69
2022-11-16T16:49:41.547Z,13.64
2022-11-16T16:52:12.427Z,13.60
2022-11-16T16:54:42.263Z,13.58
2022-11-16T16:57:14.108Z,13.57
2022-11-16T16:59:42.408Z,13.56
2022-11-16T17:02:11.154Z,13.57
2022-11-16T17:04:39.231Z,13.59
2022-11-16T17:07:07.545Z,13.58
2022-11-16T17:09:35.427Z,13.59
2022-11-16T17:12:05.299Z,13.59
2022-11-16T17:14:33.231Z,13.58
2022-11-16T17:17:01.443Z,13.57
2022-11-16T17:19:29.893Z,13.58
2022-11-16T17:21:58.169Z,13.55
2022-11-16T17:24:26.055Z,13.55
2022-11-16T17:26:54.281Z,13.54
2022-11-16T17:29:23.672Z,13.55
2022-11-16T17:31:51.929Z,13.54
2022-11-16T17:34:19.921Z,13.50
2022-11-16T17:36:48.225Z,13.53
2022-11-16T17:39:16.683Z,13.50
2022-11-16T17:41:44.853Z,13.49
2022-11-16T17:44:17.188Z,13.49
2022-11-16T17:46:49.971Z,13.48
2022-11-16T17:49:17.971Z,13.47
2022-11-16T17:51:46.312Z,13.45
2022-11-16T17:54:14.440Z,13.43
2022-11-16T17:56:42.633Z,13.40
2022-11-16T17:59:10.655Z,13.37
2022-11-16T18:01:39.355Z,13.35
2022-11-16T18:04:08.834Z,13.30
2022-11-16T18:06:37.577Z,13.27
2022-11-16T18:09:05.659Z,13.24
2022-11-16T18:11:33.951Z,13.22
2022-11-16T18:14:05.384Z,13.19
2022-11-16T18:16:34.558Z,13.15
2022-11-16T18:19:04.082Z,13.10
2022-11-16T18:21:39.490Z,13.07
2022-11-16T18:24:08.166Z,13.05
2022-11-16T18:26:36.794Z,13.03
2022-11-16T18:29:05.215Z,13.03
2022-11-16T18:31:33.944Z,13.01
2022-11-16T18:34:02.719Z,13.00
2022-11-16T18:36:30.897Z,13.02
2022-11-16T18:39:00.228Z,13.02
2022-11-16T18:41:29.467Z,13.03
2022-11-16T18:43:58.501Z,13.04
2022-11-16T18:46:28.137Z,13.05
2022-11-16T18:48:56.504Z,13.06
2022-11-16T18:51:26.028Z,13.08
2022-11-16T18:53:54.512Z,13.08
2022-11-16T18:56:25.259Z,13.07
2022-11-16T18:58:53.769Z,13.08
2022-11-16T19:01:23.361Z,13.09
2022-11-16T19:03:51.845Z,13.09
2022-11-16T19:06:20.353Z,13.09
2022-11-16T19:08:55.355Z,13.11
2022-11-16T19:11:25.989Z,13.11
2022-11-16T19:13:55.330Z,13.13
2022-11-16T19:16:24.933Z,13.12
2022-11-16T19:18:53.119Z,13.11
2022-11-16T19:21:22.754Z,13.11
2022-11-16T19:23:52.812Z,13.12
2022-11-16T19:26:27.815Z,13.12
2022-11-16T19:28:56.023Z,13.12
2022-11-16T19:31:26.135Z,13.11
2022-11-16T19:33:55.233Z,13.11
2022-11-16T19:36:25.490Z,13.11
2022-11-16T19:38:54.963Z,13.12
2022-11-16T19:41:25.923Z,13.12
2022-11-16T19:43:59.512Z,13.13
2022-11-16T19:46:29.399Z,13.11
2022-11-16T19:48:58.184Z,13.10
2022-11-16T19:51:28.164Z,13.08
2022-11-16T19:53:56.503Z,13.07
2022-11-16T19:56:26.583Z,13.05
2022-11-16T19:58:55.002Z,13.03
2022-11-16T20:01:27.936Z,13.02
2022-11-16T20:03:57.505Z,13.00
2022-11-16T20:06:29.595Z,12.97
2022-11-16T20:09:00.724Z,12.94
2022-11-16T20:11:33.564Z,12.89
2022-11-16T20:14:02.855Z,12.84
2022-11-16T20:16:38.377Z,12.80
2022-11-16T20:19:07.496Z,12.75
2022-11-16T20:21:37.040Z,12.71
2022-11-16T20:24:07.260Z,12.68
2022-11-16T20:29:05.952Z,12.62
2022-11-16T20:31:34.638Z,12.62
2022-11-16T20:34:04.268Z,12.60
2022-11-16T20:36:33.955Z,12.60
2022-11-16T20:39:02.336Z,12.58
2022-11-16T20:41:32.022Z,12.59
2022-11-16T20:44:02.419Z,12.57
2022-11-16T20:46:31.824Z,12.58
2022-11-16T20:49:01.627Z,12.59
2022-11-16T20:51:30.416Z,12.65
2022-11-16T20:53:58.887Z,12.73
2022-11-16T20:56:30.042Z,12.82
2022-11-16T20:58:58.245Z,12.85
2022-11-16T21:01:31.446Z,12.85
2022-11-16T21:04:01.196Z,12.82
2022-11-16T21:06:29.917Z,12.79
2022-11-16T21:08:57.884Z,12.76
2022-11-16T21:11:28.785Z,12.72
2022-11-16T21:14:14.775Z,12.69
2022-11-16T21:16:44.704Z,12.64
2022-11-16T21:19:12.889Z,12.62
2022-11-16T21:21:41.431Z,12.58
2022-11-16T21:24:09.726Z,12.56
2022-11-16T21:26:38.090Z,12.53
2022-11-16T21:29:06.559Z,12.50
2022-11-16T21:31:36.663Z,12.48
2022-11-16T21:34:07.398Z,12.49
2022-11-16T21:36:36.029Z,12.49
2022-11-16T21:39:03.971Z,12.47
2022-11-16T21:41:32.542Z,12.46
2022-11-16T21:44:00.484Z,12.43
2022-11-16T21:46:28.807Z,12.44
2022-11-16T21:48:57.191Z,12.44
2022-11-16T21:51:27.808Z,12.42
2022-11-16T21:53:56.049Z,12.37
2022-11-16T21:56:25.432Z,12.38
2022-11-16T21:58:54.136Z,12.29
2022-11-16T22:01:23.367Z,12.27
2022-11-16T22:04:11.478Z,12.25
2022-11-16T22:06:58.530Z,12.24
2022-11-16T22:09:26.543Z,12.23
2022-11-16T22:11:54.768Z,12.23
2022-11-16T22:14:22.655Z,12.23
2022-11-16T22:16:50.610Z,12.22
2022-11-16T22:19:18.765Z,12.21
2022-11-16T22:21:48.009Z,12.20
2022-11-16T22:24:16.343Z,12.21
2022-11-16T22:26:44.240Z,12.21
2022-11-16T22:29:12.347Z,12.23
2022-11-16T22:31:40.413Z,12.26
2022-11-16T22:34:08.516Z,12.26
2022-11-16T22:36:36.433Z,12.27
2022-11-16T22:39:05.994Z,12.28
2022-11-16T22:41:33.875Z,12.30
2022-11-16T22:44:02.014Z,12.31
2022-11-16T22:46:29.904Z,12.30
2022-11-16T22:48:58.037Z,12.32
2022-11-16T22:51:27.010Z,12.33
2022-11-16T22:53:55.536Z,12.33
2022-11-16T22:56:25.024Z,12.34
2022-11-16T22:58:53.642Z,12.34
2022-11-16T23:01:22.038Z,12.35
2022-11-16T23:03:50.572Z,12.36
2022-11-16T23:06:18.556Z,12.37
2022-11-16T23:08:46.677Z,12.38
2022-11-16T23:11:34.039Z,12.38
2022-11-16T23:14:21.534Z,12.38
2022-11-16T23:16:50.486Z,12.38
2022-11-16T23:19:37.491Z,12.39
2022-11-16T23:22:23.257Z,12.38
2022-11-16T23:25:08.860Z,12.37
2022-11-16T23:27:40.932Z,12.39
2022-11-16T23:30:13.197Z,12.38
2022-11-16T23:32:42.229Z,12.37
2022-11-16T23:35:12.073Z,12.36
2022-11-16T23:37:53.976Z,12.32
2022-11-16T23:40:23.934Z,12.28
2022-11-16T23:43:10.115Z,12.24
2022-11-16T23:45:40.062Z,12.22
2022-11-16T23:48:08.982Z,12.20
2022-11-16T23:50:37.650Z,12.17
2022-11-16T23:53:06.698Z,12.14
2022-11-16T23:55:35.506Z,12.10
2022-11-16T23:58:03.458Z,12.07
